Sauk-Prairie, WI

1:15 PM CDT on May 27, 2015 (GMT -0500)
Baraboo/Sauk Prairie | | Change Station
CLOSE
Current Station
Personal Weather Station
Location: Merrimac, WI
Elevation: 870 ft
Nearby Weather Stations

Elev 870 ft 43.37 °N, 89.68 °W | Updated 3 seconds ago

Mostly Cloudy
Mostly Cloudy
70.8 °F
Feels Like 71 °F
N
3.0
Wind Variable Wind from NE
Gusts 5.0 mph

Today
High -- | Low -- °F
--% Chance of Precip.
Yesterday
High -- | Low -- °F
Precip. -- in
5:24 AM 8:28 PM
Waxing Gibbous, 69% visible
Pressure 30.00 in
Visibility 10.0 miles
Clouds Mostly Cloudy 8500 ft
Heat Index 71 °F
Dew Point 64 °F
Humidity 80%
Rainfall 0.02 in
Snow Depth Not available.
UV 6 out of 12
Pollen 7.70 out of 12
Air Quality Not available.
Flu Activity Sporadic
METAR KDLL 271735Z AUTO 32004KT 10SM BKN085 20/11 A3000 RMK AO2 T01980111

More Conditions Fewer Conditions

Pressure 30.00 in
Visibility 10.0 miles
Clouds Mostly Cloudy 8500 ft
Heat Index 71 °F
Dew Point 64 °F
Humidity 80%
Rainfall 0.02 in
Snow Depth Not available.
UV 6 out of 12
Pollen 7.70 out of 12
Air Quality Not available.
Flu Activity Sporadic
METAR KDLL 271735Z AUTO 32004KT 10SM BKN085 20/11 A3000 RMK AO2 T01980111

More Conditions Fewer Conditions

10-Day Weather Forecast

Almanac

Astronomy

May. 27, 2015 Rise Set
Actual Time
Civil Twilight
Nautical Twilight
Astronomical Twilight
Moon
Length of Visible Light
Length of Day
Tomorrow will be .
, % of the Moon is Illuminated

Today's Extremes

State Highs State Lows

Community

WunderPhotos

Upload Photos

1,824,744 photos uploaded!

WunderBlogs® & News

Nearby

Air Quality

  Air Quality AQ Index Pollutant
Not available.

Snow Depth

Station Depth Elevation

Earthquake Activity

City Distance Mag. Time & Date
Minimum magnitude displayed is 2.5.

Coastal Water Temperatures

Place Temperature

Stations

Nearby Weather Stations

Station Location Temp. Windchill Dew Point Humidity Wind Precip. Elev Updated Type